sensor_id;sensor_type;location;lat;lon;timestamp;pressure;altitude;pressure_sealevel;temperature
23208;BMP180;11773;52.570;13.052;2022-12-10T00:01:52;100536.00;;;5.80
23208;BMP180;11773;52.570;13.052;2022-12-10T00:04:21;100541.00;;;5.80
23208;BMP180;11773;52.570;13.052;2022-12-10T00:06:51;100546.00;;;5.80
23208;BMP180;11773;52.570;13.052;2022-12-10T00:09:21;100543.00;;;5.80
23208;BMP180;11773;52.570;13.052;2022-12-10T00:11:50;100534.00;;;5.80
23208;BMP180;11773;52.570;13.052;2022-12-10T00:14:19;100551.00;;;5.80
23208;BMP180;11773;52.570;13.052;2022-12-10T00:16:49;100543.00;;;5.80
23208;BMP180;11773;52.570;13.052;2022-12-10T00:19:18;100541.00;;;5.80
23208;BMP180;11773;52.570;13.052;2022-12-10T00:21:48;100540.00;;;5.80
23208;BMP180;11773;52.570;13.052;2022-12-10T00:24:17;100540.00;;;5.80
23208;BMP180;11773;52.570;13.052;2022-12-10T00:26:47;100542.00;;;5.80
23208;BMP180;11773;52.570;13.052;2022-12-10T00:29:16;100534.00;;;5.80
23208;BMP180;11773;52.570;13.052;2022-12-10T00:31:46;100547.00;;;5.70
23208;BMP180;11773;52.570;13.052;2022-12-10T00:34:15;100542.00;;;5.70
23208;BMP180;11773;52.570;13.052;2022-12-10T00:36:47;100539.00;;;5.80
23208;BMP180;11773;52.570;13.052;2022-12-10T00:39:20;100548.00;;;5.80
23208;BMP180;11773;52.570;13.052;2022-12-10T00:41:49;100554.00;;;5.70
23208;BMP180;11773;52.570;13.052;2022-12-10T00:44:19;100556.00;;;5.70
23208;BMP180;11773;52.570;13.052;2022-12-10T00:46:48;100546.00;;;5.70
23208;BMP180;11773;52.570;13.052;2022-12-10T00:49:18;100549.00;;;5.70
23208;BMP180;11773;52.570;13.052;2022-12-10T00:51:49;100558.00;;;5.70
23208;BMP180;11773;52.570;13.052;2022-12-10T00:54:19;100555.00;;;5.70
23208;BMP180;11773;52.570;13.052;2022-12-10T00:56:48;100554.00;;;5.80
23208;BMP180;11773;52.570;13.052;2022-12-10T00:59:18;100555.00;;;5.80
23208;BMP180;11773;52.570;13.052;2022-12-10T01:01:47;100554.00;;;5.80
23208;BMP180;11773;52.570;13.052;2022-12-10T01:04:18;100550.00;;;5.80
23208;BMP180;11773;52.570;13.052;2022-12-10T01:06:53;100561.00;;;5.80
23208;BMP180;11773;52.570;13.052;2022-12-10T01:09:26;100569.00;;;5.80
23208;BMP180;11773;52.570;13.052;2022-12-10T01:12:00;100562.00;;;5.80
23208;BMP180;11773;52.570;13.052;2022-12-10T01:14:32;100564.00;;;5.70
23208;BMP180;11773;52.570;13.052;2022-12-10T01:17:04;100569.00;;;5.70
23208;BMP180;11773;52.570;13.052;2022-12-10T01:19:34;100574.00;;;5.70
23208;BMP180;11773;52.570;13.052;2022-12-10T01:22:04;100559.00;;;5.70
23208;BMP180;11773;52.570;13.052;2022-12-10T01:24:34;100562.00;;;5.70
23208;BMP180;11773;52.570;13.052;2022-12-10T01:27:03;100565.00;;;5.70
23208;BMP180;11773;52.570;13.052;2022-12-10T01:29:33;100568.00;;;5.70
23208;BMP180;11773;52.570;13.052;2022-12-10T01:32:02;100564.00;;;5.70
23208;BMP180;11773;52.570;13.052;2022-12-10T01:34:32;100572.00;;;5.70
23208;BMP180;11773;52.570;13.052;2022-12-10T01:37:01;100561.00;;;5.70
23208;BMP180;11773;52.570;13.052;2022-12-10T01:39:31;100588.00;;;5.80
23208;BMP180;11773;52.570;13.052;2022-12-10T01:42:01;100581.00;;;5.70
23208;BMP180;11773;52.570;13.052;2022-12-10T01:47:13;100555.00;;;5.70
23208;BMP180;11773;52.570;13.052;2022-12-10T01:49:43;100557.00;;;5.70
23208;BMP180;11773;52.570;13.052;2022-12-10T01:52:12;100565.00;;;5.70
23208;BMP180;11773;52.570;13.052;2022-12-10T01:54:45;100568.00;;;5.70
23208;BMP180;11773;52.570;13.052;2022-12-10T01:57:25;100564.00;;;5.70
23208;BMP180;11773;52.570;13.052;2022-12-10T02:00:04;100564.00;;;5.60
23208;BMP180;11773;52.570;13.052;2022-12-10T02:02:42;100562.00;;;5.60
23208;BMP180;11773;52.570;13.052;2022-12-10T02:08:51;100557.00;;;5.50
23208;BMP180;11773;52.570;13.052;2022-12-10T02:11:31;100564.00;;;5.40
23208;BMP180;11773;52.570;13.052;2022-12-10T02:14:10;100572.00;;;5.40
23208;BMP180;11773;52.570;13.052;2022-12-10T02:16:56;100546.00;;;5.40
23208;BMP180;11773;52.570;13.052;2022-12-10T02:19:42;100546.00;;;5.40
23208;BMP180;11773;52.570;13.052;2022-12-10T02:22:11;100543.00;;;5.30
23208;BMP180;11773;52.570;13.052;2022-12-10T02:24:42;100555.00;;;5.30
23208;BMP180;11773;52.570;13.052;2022-12-10T02:27:22;100553.00;;;5.30
23208;BMP180;11773;52.570;13.052;2022-12-10T02:29:52;100541.00;;;5.40
23208;BMP180;11773;52.570;13.052;2022-12-10T02:32:30;100558.00;;;5.30
23208;BMP180;11773;52.570;13.052;2022-12-10T02:35:01;100550.00;;;5.30
23208;BMP180;11773;52.570;13.052;2022-12-10T02:37:40;100558.00;;;5.30
23208;BMP180;11773;52.570;13.052;2022-12-10T02:40:17;100551.00;;;5.30
23208;BMP180;11773;52.570;13.052;2022-12-10T02:42:50;100565.00;;;5.30
23208;BMP180;11773;52.570;13.052;2022-12-10T02:45:24;100563.00;;;5.40
23208;BMP180;11773;52.570;13.052;2022-12-10T02:47:58;100561.00;;;5.40
23208;BMP180;11773;52.570;13.052;2022-12-10T02:50:28;100556.00;;;5.40
23208;BMP180;11773;52.570;13.052;2022-12-10T02:52:58;100558.00;;;5.40
23208;BMP180;11773;52.570;13.052;2022-12-10T02:55:30;100553.00;;;5.40
23208;BMP180;11773;52.570;13.052;2022-12-10T02:59:03;100568.00;;;5.40
23208;BMP180;11773;52.570;13.052;2022-12-10T03:01:12;100561.00;;;5.40
23208;BMP180;11773;52.570;13.052;2022-12-10T03:04:22;100557.00;;;5.40
23208;BMP180;11773;52.570;13.052;2022-12-10T03:06:47;100557.00;;;5.30
23208;BMP180;11773;52.570;13.052;2022-12-10T03:09:35;100579.00;;;5.30
23208;BMP180;11773;52.570;13.052;2022-12-10T03:12:07;100567.00;;;5.30
23208;BMP180;11773;52.570;13.052;2022-12-10T03:14:37;100573.00;;;5.30
23208;BMP180;11773;52.570;13.052;2022-12-10T03:17:07;100581.00;;;5.30
23208;BMP180;11773;52.570;13.052;2022-12-10T03:19:44;100566.00;;;5.40
23208;BMP180;11773;52.570;13.052;2022-12-10T03:22:18;100564.00;;;5.40
23208;BMP180;11773;52.570;13.052;2022-12-10T03:24:49;100569.00;;;5.40
23208;BMP180;11773;52.570;13.052;2022-12-10T03:27:22;100561.00;;;5.40
23208;BMP180;11773;52.570;13.052;2022-12-10T03:29:56;100567.00;;;5.40
23208;BMP180;11773;52.570;13.052;2022-12-10T03:32:28;100568.00;;;5.30
23208;BMP180;11773;52.570;13.052;2022-12-10T03:35:00;100567.00;;;5.30
23208;BMP180;11773;52.570;13.052;2022-12-10T03:37:30;100574.00;;;5.40
23208;BMP180;11773;52.570;13.052;2022-12-10T03:40:00;100572.00;;;5.40
23208;BMP180;11773;52.570;13.052;2022-12-10T03:42:31;100580.00;;;5.40
23208;BMP180;11773;52.570;13.052;2022-12-10T03:45:00;100567.00;;;5.40
23208;BMP180;11773;52.570;13.052;2022-12-10T03:47:30;100568.00;;;5.40
23208;BMP180;11773;52.570;13.052;2022-12-10T03:49:59;100566.00;;;5.40
23208;BMP180;11773;52.570;13.052;2022-12-10T03:52:29;100569.00;;;5.50
23208;BMP180;11773;52.570;13.052;2022-12-10T03:54:58;100571.00;;;5.50
23208;BMP180;11773;52.570;13.052;2022-12-10T03:57:27;100558.00;;;5.50
23208;BMP180;11773;52.570;13.052;2022-12-10T03:59:57;100562.00;;;5.50
23208;BMP180;11773;52.570;13.052;2022-12-10T04:02:26;100566.00;;;5.50
23208;BMP180;11773;52.570;13.052;2022-12-10T04:04:56;100566.00;;;5.50
23208;BMP180;11773;52.570;13.052;2022-12-10T04:07:26;100581.00;;;5.50
23208;BMP180;11773;52.570;13.052;2022-12-10T04:09:55;100577.00;;;5.50
23208;BMP180;11773;52.570;13.052;2022-12-10T04:12:24;100570.00;;;5.50
23208;BMP180;11773;52.570;13.052;2022-12-10T04:14:54;100563.00;;;5.50
23208;BMP180;11773;52.570;13.052;2022-12-10T04:17:41;100568.00;;;5.50
23208;BMP180;11773;52.570;13.052;2022-12-10T04:20:11;100583.00;;;5.50
23208;BMP180;11773;52.570;13.052;2022-12-10T04:22:58;100588.00;;;5.50
23208;BMP180;11773;52.570;13.052;2022-12-10T04:25:46;100569.00;;;5.50
23208;BMP180;11773;52.570;13.052;2022-12-10T04:28:33;100568.00;;;5.50
23208;BMP180;11773;52.570;13.052;2022-12-10T04:31:03;100596.00;;;5.60
23208;BMP180;11773;52.570;13.052;2022-12-10T04:33:32;100580.00;;;5.60
23208;BMP180;11773;52.570;13.052;2022-12-10T04:36:01;100587.00;;;5.60
23208;BMP180;11773;52.570;13.052;2022-12-10T04:38:31;100577.00;;;5.60
23208;BMP180;11773;52.570;13.052;2022-12-10T04:41:00;100586.00;;;5.60
23208;BMP180;11773;52.570;13.052;2022-12-10T04:43:30;100582.00;;;5.70
23208;BMP180;11773;52.570;13.052;2022-12-10T04:45:59;100600.00;;;5.70
23208;BMP180;11773;52.570;13.052;2022-12-10T04:48:29;100582.00;;;5.70
23208;BMP180;11773;52.570;13.052;2022-12-10T04:50:58;100586.00;;;5.70
23208;BMP180;11773;52.570;13.052;2022-12-10T04:53:28;100587.00;;;5.70
23208;BMP180;11773;52.570;13.052;2022-12-10T04:55:57;100594.00;;;5.70
23208;BMP180;11773;52.570;13.052;2022-12-10T04:58:27;100600.00;;;5.80
23208;BMP180;11773;52.570;13.052;2022-12-10T05:01:08;100588.00;;;5.80
23208;BMP180;11773;52.570;13.052;2022-12-10T05:03:38;100586.00;;;5.80
23208;BMP180;11773;52.570;13.052;2022-12-10T05:06:12;100589.00;;;5.80
23208;BMP180;11773;52.570;13.052;2022-12-10T05:08:42;100595.00;;;5.80
23208;BMP180;11773;52.570;13.052;2022-12-10T05:11:16;100599.00;;;5.80
23208;BMP180;11773;52.570;13.052;2022-12-10T05:13:46;100592.00;;;5.80
23208;BMP180;11773;52.570;13.052;2022-12-10T05:16:19;100590.00;;;5.80
23208;BMP180;11773;52.570;13.052;2022-12-10T05:18:50;100596.00;;;5.80
23208;BMP180;11773;52.570;13.052;2022-12-10T05:21:21;100595.00;;;5.80
23208;BMP180;11773;52.570;13.052;2022-12-10T05:23:53;100581.00;;;5.80
23208;BMP180;11773;52.570;13.052;2022-12-10T05:26:24;100582.00;;;5.80
23208;BMP180;11773;52.570;13.052;2022-12-10T05:28:56;100583.00;;;5.80
23208;BMP180;11773;52.570;13.052;2022-12-10T05:31:29;100583.00;;;5.90
23208;BMP180;11773;52.570;13.052;2022-12-10T05:33:59;100593.00;;;5.90
23208;BMP180;11773;52.570;13.052;2022-12-10T05:36:31;100597.00;;;5.90
23208;BMP180;11773;52.570;13.052;2022-12-10T05:39:01;100603.00;;;5.90
23208;BMP180;11773;52.570;13.052;2022-12-10T05:41:36;100596.00;;;5.90
23208;BMP180;11773;52.570;13.052;2022-12-10T05:44:06;100599.00;;;5.90
23208;BMP180;11773;52.570;13.052;2022-12-10T05:46:36;100600.00;;;5.90
23208;BMP180;11773;52.570;13.052;2022-12-10T05:49:07;100599.00;;;5.90
23208;BMP180;11773;52.570;13.052;2022-12-10T05:51:37;100598.00;;;5.90
23208;BMP180;11773;52.570;13.052;2022-12-10T05:54:09;100597.00;;;5.90
23208;BMP180;11773;52.570;13.052;2022-12-10T05:56:38;100605.00;;;5.90
23208;BMP180;11773;52.570;13.052;2022-12-10T05:59:09;100612.00;;;5.90
23208;BMP180;11773;52.570;13.052;2022-12-10T06:01:40;100592.00;;;5.90
23208;BMP180;11773;52.570;13.052;2022-12-10T06:04:10;100613.00;;;5.90
23208;BMP180;11773;52.570;13.052;2022-12-10T06:06:40;100600.00;;;5.90
23208;BMP180;11773;52.570;13.052;2022-12-10T06:09:12;100596.00;;;5.90
23208;BMP180;11773;52.570;13.052;2022-12-10T06:11:42;100607.00;;;5.90
23208;BMP180;11773;52.570;13.052;2022-12-10T06:14:11;100603.00;;;5.90
23208;BMP180;11773;52.570;13.052;2022-12-10T06:16:41;100616.00;;;5.90
23208;BMP180;11773;52.570;13.052;2022-12-10T06:19:11;100613.00;;;5.90
23208;BMP180;11773;52.570;13.052;2022-12-10T06:21:40;100605.00;;;5.90
23208;BMP180;11773;52.570;13.052;2022-12-10T06:24:10;100611.00;;;5.90
23208;BMP180;11773;52.570;13.052;2022-12-10T06:26:39;100622.00;;;5.90
23208;BMP180;11773;52.570;13.052;2022-12-10T06:29:10;100617.00;;;5.90
23208;BMP180;11773;52.570;13.052;2022-12-10T06:31:39;100618.00;;;5.90
23208;BMP180;11773;52.570;13.052;2022-12-10T06:34:09;100625.00;;;5.90
23208;BMP180;11773;52.570;13.052;2022-12-10T06:36:38;100622.00;;;5.90
23208;BMP180;11773;52.570;13.052;2022-12-10T06:39:08;100627.00;;;5.90
23208;BMP180;11773;52.570;13.052;2022-12-10T06:41:37;100637.00;;;5.90
23208;BMP180;11773;52.570;13.052;2022-12-10T06:44:11;100624.00;;;5.90
23208;BMP180;11773;52.570;13.052;2022-12-10T06:46:41;100625.00;;;5.90
23208;BMP180;11773;52.570;13.052;2022-12-10T06:49:10;100628.00;;;5.90
23208;BMP180;11773;52.570;13.052;2022-12-10T06:51:40;100625.00;;;5.90
23208;BMP180;11773;52.570;13.052;2022-12-10T06:54:09;100630.00;;;5.90
23208;BMP180;11773;52.570;13.052;2022-12-10T06:56:39;100636.00;;;5.90
23208;BMP180;11773;52.570;13.052;2022-12-10T06:59:08;100632.00;;;5.90
23208;BMP180;11773;52.570;13.052;2022-12-10T07:01:38;100635.00;;;5.90
23208;BMP180;11773;52.570;13.052;2022-12-10T07:04:09;100635.00;;;5.90
23208;BMP180;11773;52.570;13.052;2022-12-10T07:06:39;100639.00;;;5.90
23208;BMP180;11773;52.570;13.052;2022-12-10T07:09:08;100643.00;;;5.90
23208;BMP180;11773;52.570;13.052;2022-12-10T07:11:41;100643.00;;;5.90
23208;BMP180;11773;52.570;13.052;2022-12-10T07:14:14;100644.00;;;5.90
23208;BMP180;11773;52.570;13.052;2022-12-10T07:16:44;100644.00;;;5.90
23208;BMP180;11773;52.570;13.052;2022-12-10T07:19:14;100648.00;;;5.90
23208;BMP180;11773;52.570;13.052;2022-12-10T07:21:44;100658.00;;;5.90
23208;BMP180;11773;52.570;13.052;2022-12-10T07:24:17;100654.00;;;5.80
23208;BMP180;11773;52.570;13.052;2022-12-10T07:26:47;100650.00;;;5.90
23208;BMP180;11773;52.570;13.052;2022-12-10T07:29:20;100655.00;;;5.80
23208;BMP180;11773;52.570;13.052;2022-12-10T07:31:50;100656.00;;;5.80
23208;BMP180;11773;52.570;13.052;2022-12-10T07:34:19;100658.00;;;5.80
23208;BMP180;11773;52.570;13.052;2022-12-10T07:36:49;100677.00;;;5.80
23208;BMP180;11773;52.570;13.052;2022-12-10T07:39:19;100668.00;;;5.80
23208;BMP180;11773;52.570;13.052;2022-12-10T07:41:51;100675.00;;;5.80
23208;BMP180;11773;52.570;13.052;2022-12-10T07:44:24;100668.00;;;5.80
23208;BMP180;11773;52.570;13.052;2022-12-10T07:46:55;100667.00;;;5.80
23208;BMP180;11773;52.570;13.052;2022-12-10T07:49:24;100673.00;;;5.70
23208;BMP180;11773;52.570;13.052;2022-12-10T07:51:54;100678.00;;;5.80
23208;BMP180;11773;52.570;13.052;2022-12-10T07:54:23;100675.00;;;5.80
23208;BMP180;11773;52.570;13.052;2022-12-10T07:56:53;100680.00;;;5.80
23208;BMP180;11773;52.570;13.052;2022-12-10T07:59:22;100673.00;;;5.80
23208;BMP180;11773;52.570;13.052;2022-12-10T08:01:52;100680.00;;;5.80
23208;BMP180;11773;52.570;13.052;2022-12-10T08:04:21;100684.00;;;5.80
23208;BMP180;11773;52.570;13.052;2022-12-10T08:06:54;100677.00;;;5.80
23208;BMP180;11773;52.570;13.052;2022-12-10T08:09:24;100678.00;;;5.80
23208;BMP180;11773;52.570;13.052;2022-12-10T08:11:53;100684.00;;;5.80
23208;BMP180;11773;52.570;13.052;2022-12-10T08:14:23;100681.00;;;5.80
23208;BMP180;11773;52.570;13.052;2022-12-10T08:16:52;100691.00;;;5.80
23208;BMP180;11773;52.570;13.052;2022-12-10T08:19:22;100689.00;;;5.80
23208;BMP180;11773;52.570;13.052;2022-12-10T08:21:53;100690.00;;;5.80
23208;BMP180;11773;52.570;13.052;2022-12-10T08:24:23;100681.00;;;5.80
23208;BMP180;11773;52.570;13.052;2022-12-10T08:26:52;100690.00;;;5.70
23208;BMP180;11773;52.570;13.052;2022-12-10T08:29:22;100695.00;;;5.70
23208;BMP180;11773;52.570;13.052;2022-12-10T08:31:54;100704.00;;;5.70
23208;BMP180;11773;52.570;13.052;2022-12-10T08:34:24;100706.00;;;5.70
23208;BMP180;11773;52.570;13.052;2022-12-10T08:36:53;100700.00;;;5.70
23208;BMP180;11773;52.570;13.052;2022-12-10T08:39:23;100688.00;;;5.70
23208;BMP180;11773;52.570;13.052;2022-12-10T08:41:55;100708.00;;;5.70
23208;BMP180;11773;52.570;13.052;2022-12-10T08:44:25;100715.00;;;5.80
23208;BMP180;11773;52.570;13.052;2022-12-10T08:46:54;100697.00;;;5.70
23208;BMP180;11773;52.570;13.052;2022-12-10T08:49:24;100700.00;;;5.80
23208;BMP180;11773;52.570;13.052;2022-12-10T08:51:53;100705.00;;;5.80
23208;BMP180;11773;52.570;13.052;2022-12-10T08:54:23;100706.00;;;5.80
23208;BMP180;11773;52.570;13.052;2022-12-10T08:56:52;100704.00;;;5.80
23208;BMP180;11773;52.570;13.052;2022-12-10T08:59:22;100729.00;;;5.80
23208;BMP180;11773;52.570;13.052;2022-12-10T09:01:52;100709.00;;;5.80
23208;BMP180;11773;52.570;13.052;2022-12-10T09:04:23;100717.00;;;5.80
23208;BMP180;11773;52.570;13.052;2022-12-10T09:06:53;100713.00;;;5.80
23208;BMP180;11773;52.570;13.052;2022-12-10T09:09:22;100706.00;;;5.80
23208;BMP180;11773;52.570;13.052;2022-12-10T09:11:52;100712.00;;;5.80
23208;BMP180;11773;52.570;13.052;2022-12-10T09:14:21;100712.00;;;5.80
23208;BMP180;11773;52.570;13.052;2022-12-10T09:16:52;100715.00;;;5.80
23208;BMP180;11773;52.570;13.052;2022-12-10T09:19:21;100715.00;;;5.80
23208;BMP180;11773;52.570;13.052;2022-12-10T09:21:51;100712.00;;;5.80
23208;BMP180;11773;52.570;13.052;2022-12-10T09:24:20;100728.00;;;5.80
23208;BMP180;11773;52.570;13.052;2022-12-10T09:26:50;100721.00;;;5.80
23208;BMP180;11773;52.570;13.052;2022-12-10T09:29:19;100723.00;;;5.80
23208;BMP180;11773;52.570;13.052;2022-12-10T09:31:51;100715.00;;;5.80
23208;BMP180;11773;52.570;13.052;2022-12-10T09:34:21;100715.00;;;5.90
23208;BMP180;11773;52.570;13.052;2022-12-10T09:36:50;100714.00;;;5.90
23208;BMP180;11773;52.570;13.052;2022-12-10T09:39:20;100720.00;;;5.90
23208;BMP180;11773;52.570;13.052;2022-12-10T09:42:17;100710.00;;;5.90
23208;BMP180;11773;52.570;13.052;2022-12-10T09:51:34;100712.00;;;5.80
23208;BMP180;11773;52.570;13.052;2022-12-10T09:53:59;100722.00;;;5.70
23208;BMP180;11773;52.570;13.052;2022-12-10T09:56:35;100718.00;;;5.80
23208;BMP180;11773;52.570;13.052;2022-12-10T09:59:20;100715.00;;;5.80
23208;BMP180;11773;52.570;13.052;2022-12-10T10:01:47;100718.00;;;5.80
23208;BMP180;11773;52.570;13.052;2022-12-10T10:04:17;100722.00;;;5.80
23208;BMP180;11773;52.570;13.052;2022-12-10T10:06:47;100718.00;;;5.80
23208;BMP180;11773;52.570;13.052;2022-12-10T10:09:18;100715.00;;;5.80
23208;BMP180;11773;52.570;13.052;2022-12-10T10:11:48;100716.00;;;5.80
23208;BMP180;11773;52.570;13.052;2022-12-10T10:14:25;100719.00;;;5.90
23208;BMP180;11773;52.570;13.052;2022-12-10T10:17:00;100730.00;;;5.90
23208;BMP180;11773;52.570;13.052;2022-12-10T10:19:32;100724.00;;;5.90
23208;BMP180;11773;52.570;13.052;2022-12-10T10:22:05;100724.00;;;5.90
23208;BMP180;11773;52.570;13.052;2022-12-10T10:24:46;100728.00;;;5.90
23208;BMP180;11773;52.570;13.052;2022-12-10T10:27:20;100724.00;;;6.00
23208;BMP180;11773;52.570;13.052;2022-12-10T10:29:54;100733.00;;;6.00
23208;BMP180;11773;52.570;13.052;2022-12-10T10:32:52;100727.00;;;6.00
23208;BMP180;11773;52.570;13.052;2022-12-10T10:35:00;100717.00;;;6.00
23208;BMP180;11773;52.570;13.052;2022-12-10T10:40:05;100739.00;;;6.00
23208;BMP180;11773;52.570;13.052;2022-12-10T10:42:43;100718.00;;;6.00
23208;BMP180;11773;52.570;13.052;2022-12-10T10:45:35;100707.00;;;6.00
23208;BMP180;11773;52.570;13.052;2022-12-10T10:48:19;100714.00;;;6.00
23208;BMP180;11773;52.570;13.052;2022-12-10T10:50:55;100710.00;;;5.90
23208;BMP180;11773;52.570;13.052;2022-12-10T10:53:49;100701.00;;;5.90
23208;BMP180;11773;52.570;13.052;2022-12-10T10:56:32;100698.00;;;5.90
23208;BMP180;11773;52.570;13.052;2022-12-10T10:59:24;100699.00;;;5.90
23208;BMP180;11773;52.570;13.052;2022-12-10T11:01:54;100696.00;;;5.90
23208;BMP180;11773;52.570;13.052;2022-12-10T11:04:46;100696.00;;;5.90
23208;BMP180;11773;52.570;13.052;2022-12-10T11:07:33;100701.00;;;5.90
23208;BMP180;11773;52.570;13.052;2022-12-10T11:10:15;100692.00;;;5.90
23208;BMP180;11773;52.570;13.052;2022-12-10T11:12:39;100690.00;;;6.00
23208;BMP180;11773;52.570;13.052;2022-12-10T11:17:56;100685.00;;;6.00
23208;BMP180;11773;52.570;13.052;2022-12-10T11:20:30;100695.00;;;6.10
23208;BMP180;11773;52.570;13.052;2022-12-10T11:23:09;100698.00;;;6.10
23208;BMP180;11773;52.570;13.052;2022-12-10T11:26:22;100683.00;;;6.10
23208;BMP180;11773;52.570;13.052;2022-12-10T11:28:56;100683.00;;;6.10
23208;BMP180;11773;52.570;13.052;2022-12-10T11:36:04;100697.00;;;6.10
23208;BMP180;11773;52.570;13.052;2022-12-10T11:38:04;100703.00;;;6.00
23208;BMP180;11773;52.570;13.052;2022-12-10T11:40:50;100686.00;;;6.00
23208;BMP180;11773;52.570;13.052;2022-12-10T11:46:26;100686.00;;;6.10
23208;BMP180;11773;52.570;13.052;2022-12-10T11:49:22;100683.00;;;6.10
23208;BMP180;11773;52.570;13.052;2022-12-10T11:54:59;100682.00;;;6.00
23208;BMP180;11773;52.570;13.052;2022-12-10T12:01:09;100686.00;;;6.00
23208;BMP180;11773;52.570;13.052;2022-12-10T12:06:50;100683.00;;;6.00
23208;BMP180;11773;52.570;13.052;2022-12-10T12:09:36;100700.00;;;6.00
23208;BMP180;11773;52.570;13.052;2022-12-10T12:18:02;100691.00;;;6.10
23208;BMP180;11773;52.570;13.052;2022-12-10T12:20:48;100698.00;;;6.10
23208;BMP180;11773;52.570;13.052;2022-12-10T12:23:52;100692.00;;;6.10
23208;BMP180;11773;52.570;13.052;2022-12-10T12:26:52;100693.00;;;6.10
23208;BMP180;11773;52.570;13.052;2022-12-10T12:29:34;100689.00;;;6.10
23208;BMP180;11773;52.570;13.052;2022-12-10T12:35:14;100687.00;;;6.10
23208;BMP180;11773;52.570;13.052;2022-12-10T12:37:48;100687.00;;;6.10
23208;BMP180;11773;52.570;13.052;2022-12-10T12:40:30;100687.00;;;6.10
23208;BMP180;11773;52.570;13.052;2022-12-10T12:43:10;100690.00;;;6.20
23208;BMP180;11773;52.570;13.052;2022-12-10T12:45:43;100687.00;;;6.10
23208;BMP180;11773;52.570;13.052;2022-12-10T12:48:43;100695.00;;;6.20
23208;BMP180;11773;52.570;13.052;2022-12-10T12:51:19;100689.00;;;6.10
23208;BMP180;11773;52.570;13.052;2022-12-10T12:53:48;100685.00;;;6.10
23208;BMP180;11773;52.570;13.052;2022-12-10T13:04:54;100692.00;;;6.10
23208;BMP180;11773;52.570;13.052;2022-12-10T13:07:28;100694.00;;;6.10
23208;BMP180;11773;52.570;13.052;2022-12-10T13:12:51;100705.00;;;6.10
23208;BMP180;11773;52.570;13.052;2022-12-10T13:15:33;100697.00;;;6.10
23208;BMP180;11773;52.570;13.052;2022-12-10T13:21:15;100709.00;;;6.10
23208;BMP180;11773;52.570;13.052;2022-12-10T13:23:33;100706.00;;;6.20
23208;BMP180;11773;52.570;13.052;2022-12-10T13:26:17;100703.00;;;6.10
23208;BMP180;11773;52.570;13.052;2022-12-10T13:28:48;100716.00;;;6.20
23208;BMP180;11773;52.570;13.052;2022-12-10T13:31:18;100717.00;;;6.20
23208;BMP180;11773;52.570;13.052;2022-12-10T13:39:34;100721.00;;;6.20
23208;BMP180;11773;52.570;13.052;2022-12-10T13:45:16;100739.00;;;6.20
23208;BMP180;11773;52.570;13.052;2022-12-10T13:47:47;100738.00;;;6.20
23208;BMP180;11773;52.570;13.052;2022-12-10T13:50:45;100743.00;;;6.30
23208;BMP180;11773;52.570;13.052;2022-12-10T13:53:43;100743.00;;;6.20
23208;BMP180;11773;52.570;13.052;2022-12-10T13:56:30;100735.00;;;6.20
23208;BMP180;11773;52.570;13.052;2022-12-10T13:59:37;100731.00;;;6.20
23208;BMP180;11773;52.570;13.052;2022-12-10T14:05:41;100732.00;;;6.20
23208;BMP180;11773;52.570;13.052;2022-12-10T14:08:13;100741.00;;;6.20
23208;BMP180;11773;52.570;13.052;2022-12-10T14:10:45;100758.00;;;6.20
23208;BMP180;11773;52.570;13.052;2022-12-10T14:13:18;100756.00;;;6.30
23208;BMP180;11773;52.570;13.052;2022-12-10T14:15:55;100740.00;;;6.30
23208;BMP180;11773;52.570;13.052;2022-12-10T14:18:28;100735.00;;;6.30
23208;BMP180;11773;52.570;13.052;2022-12-10T14:21:01;100734.00;;;6.30
23208;BMP180;11773;52.570;13.052;2022-12-10T14:23:34;100735.00;;;6.30
23208;BMP180;11773;52.570;13.052;2022-12-10T14:26:21;100735.00;;;6.30
23208;BMP180;11773;52.570;13.052;2022-12-10T14:28:57;100739.00;;;6.30
23208;BMP180;11773;52.570;13.052;2022-12-10T14:31:43;100745.00;;;6.40
23208;BMP180;11773;52.570;13.052;2022-12-10T14:34:17;100757.00;;;6.40
23208;BMP180;11773;52.570;13.052;2022-12-10T14:36:53;100746.00;;;6.40
23208;BMP180;11773;52.570;13.052;2022-12-10T14:39:30;100741.00;;;6.40
23208;BMP180;11773;52.570;13.052;2022-12-10T14:42:05;100754.00;;;6.40
23208;BMP180;11773;52.570;13.052;2022-12-10T14:44:38;100749.00;;;6.40
23208;BMP180;11773;52.570;13.052;2022-12-10T14:47:15;100756.00;;;6.40
23208;BMP180;11773;52.570;13.052;2022-12-10T14:49:48;100756.00;;;6.40
23208;BMP180;11773;52.570;13.052;2022-12-10T14:52:22;100758.00;;;6.40
23208;BMP180;11773;52.570;13.052;2022-12-10T14:54:52;100757.00;;;6.40
23208;BMP180;11773;52.570;13.052;2022-12-10T14:57:28;100767.00;;;6.40
23208;BMP180;11773;52.570;13.052;2022-12-10T15:00:10;100755.00;;;6.40
23208;BMP180;11773;52.570;13.052;2022-12-10T15:02:48;100764.00;;;6.40
23208;BMP180;11773;52.570;13.052;2022-12-10T15:05:33;100763.00;;;6.40
23208;BMP180;11773;52.570;13.052;2022-12-10T15:08:17;100763.00;;;6.40
23208;BMP180;11773;52.570;13.052;2022-12-10T15:10:46;100773.00;;;6.40
23208;BMP180;11773;52.570;13.052;2022-12-10T15:13:40;100772.00;;;6.40
23208;BMP180;11773;52.570;13.052;2022-12-10T15:16:37;100782.00;;;6.40
23208;BMP180;11773;52.570;13.052;2022-12-10T15:21:49;100775.00;;;6.30
23208;BMP180;11773;52.570;13.052;2022-12-10T15:24:40;100768.00;;;6.30
23208;BMP180;11773;52.570;13.052;2022-12-10T15:27:21;100775.00;;;6.30
23208;BMP180;11773;52.570;13.052;2022-12-10T15:29:51;100768.00;;;6.30
23208;BMP180;11773;52.570;13.052;2022-12-10T15:32:28;100763.00;;;6.30
23208;BMP180;11773;52.570;13.052;2022-12-10T15:35:03;100770.00;;;6.30
23208;BMP180;11773;52.570;13.052;2022-12-10T15:37:37;100764.00;;;6.30
23208;BMP180;11773;52.570;13.052;2022-12-10T15:40:29;100774.00;;;6.30
23208;BMP180;11773;52.570;13.052;2022-12-10T15:42:45;100772.00;;;6.30
23208;BMP180;11773;52.570;13.052;2022-12-10T15:45:39;100765.00;;;6.30
23208;BMP180;11773;52.570;13.052;2022-12-10T15:48:29;100776.00;;;6.30